createdAt,value
2022-08-19T00:01:31.127Z,3.25
2022-08-19T00:03:59.450Z,2.95
2022-08-19T00:06:27.607Z,3.85
2022-08-19T00:08:55.936Z,3.03
2022-08-19T00:11:25.677Z,3.05
2022-08-19T00:13:56.339Z,3.50
2022-08-19T00:16:26.771Z,3.30
2022-08-19T00:18:56.077Z,3.13
2022-08-19T00:21:24.560Z,3.55
2022-08-19T00:23:52.457Z,3.45
2022-08-19T00:26:20.642Z,2.95
2022-08-19T00:28:49.004Z,3.65
2022-08-19T00:31:18.420Z,3.30
2022-08-19T00:33:46.302Z,3.08
2022-08-19T00:36:14.524Z,3.40
2022-08-19T00:38:43.725Z,3.55
2022-08-19T00:41:12.494Z,3.35
2022-08-19T00:43:41.397Z,3.88
2022-08-19T00:46:09.818Z,3.38
2022-08-19T00:48:39.091Z,4.05
2022-08-19T00:51:08.068Z,3.33
2022-08-19T00:53:35.990Z,3.83
2022-08-19T00:56:07.125Z,3.60
2022-08-19T00:58:37.054Z,4.13
2022-08-19T01:01:06.017Z,3.50
2022-08-19T01:03:58.068Z,3.47
2022-08-19T01:06:23.327Z,3.85
2022-08-19T01:08:51.209Z,3.33
2022-08-19T01:11:19.492Z,4.07
2022-08-19T01:13:50.084Z,3.72
2022-08-19T01:16:19.764Z,3.72
2022-08-19T01:18:47.724Z,3.88
2022-08-19T01:21:23.398Z,3.67
2022-08-19T01:23:52.690Z,3.33
2022-08-19T01:26:24.033Z,3.70
2022-08-19T01:28:59.609Z,3.67
2022-08-19T01:31:32.501Z,4.20
2022-08-19T01:34:02.144Z,3.85
2022-08-19T01:36:32.197Z,3.40
2022-08-19T01:39:02.006Z,4.00
2022-08-19T01:41:30.083Z,3.60
2022-08-19T01:44:09.938Z,4.15
2022-08-19T01:46:48.042Z,3.88
2022-08-19T01:49:16.081Z,3.88
2022-08-19T01:51:43.898Z,4.13
2022-08-19T01:54:23.027Z,4.22
2022-08-19T01:56:58.994Z,4.22
2022-08-19T01:59:27.012Z,3.60
2022-08-19T02:01:54.886Z,4.35
2022-08-19T02:04:24.256Z,4.53
2022-08-19T02:06:52.178Z,3.72
2022-08-19T02:09:21.438Z,4.35
2022-08-19T02:11:49.330Z,4.78
2022-08-19T02:14:17.248Z,3.78
2022-08-19T02:16:45.246Z,4.18
2022-08-19T02:19:13.177Z,3.85
2022-08-19T02:21:41.247Z,4.15
2022-08-19T02:24:09.387Z,4.20
2022-08-19T02:26:38.718Z,4.28
2022-08-19T02:29:07.759Z,3.55
2022-08-19T02:31:35.619Z,3.78
2022-08-19T02:34:03.579Z,4.15
2022-08-19T02:36:32.041Z,4.20
2022-08-19T02:38:59.046Z,4.18
2022-08-19T02:41:31.781Z,4.47
2022-08-19T02:44:30.162Z,3.78
2022-08-19T02:49:21.400Z,4.28
2022-08-19T02:51:49.490Z,4.47
2022-08-19T02:54:17.702Z,4.20
2022-08-19T02:56:46.538Z,4.38
2022-08-19T02:59:15.779Z,4.35
2022-08-19T03:01:44.134Z,3.83
2022-08-19T03:04:14.279Z,4.40
2022-08-19T03:06:43.563Z,4.28
2022-08-19T03:09:12.507Z,5.25
2022-08-19T03:11:41.082Z,4.07
2022-08-19T03:14:10.879Z,4.13
2022-08-19T03:16:46.065Z,4.45
2022-08-19T03:19:14.827Z,4.10
2022-08-19T03:21:45.458Z,4.75
2022-08-19T03:24:13.979Z,4.65
2022-08-19T03:26:43.765Z,4.38
2022-08-19T03:29:13.266Z,4.32
2022-08-19T03:31:52.857Z,4.35
2022-08-19T03:34:23.249Z,4.10
2022-08-19T03:36:51.071Z,4.43
2022-08-19T03:39:19.706Z,4.20
2022-08-19T03:41:50.853Z,4.82
2022-08-19T03:47:09.059Z,4.18
2022-08-19T03:49:37.516Z,4.93
2022-08-19T03:52:08.266Z,4.20
2022-08-19T03:54:36.755Z,4.38
2022-08-19T03:57:05.217Z,4.90
2022-08-19T03:59:36.265Z,4.60
2022-08-19T04:02:09.840Z,4.45
2022-08-19T04:04:39.525Z,4.60
2022-08-19T04:07:07.788Z,4.20
2022-08-19T04:09:37.471Z,4.75
2022-08-19T04:12:07.565Z,4.70
2022-08-19T04:14:36.565Z,5.00
2022-08-19T04:17:06.644Z,4.63
2022-08-19T04:19:35.790Z,4.70
2022-08-19T04:22:05.901Z,4.60
2022-08-19T04:24:34.465Z,4.35
2022-08-19T04:27:03.512Z,4.47
2022-08-19T04:29:31.860Z,4.30
2022-08-19T04:32:08.974Z,5.18
2022-08-19T04:35:02.098Z,5.13
2022-08-19T04:37:35.399Z,4.40
2022-08-19T04:40:23.467Z,3.65
2022-08-19T04:42:51.429Z,4.80
2022-08-19T04:45:19.385Z,4.75
2022-08-19T04:47:58.919Z,4.75
2022-08-19T04:50:43.231Z,4.28
2022-08-19T04:53:12.830Z,4.97
2022-08-19T04:55:43.055Z,5.07
2022-08-19T04:58:11.244Z,4.38
2022-08-19T05:00:41.327Z,3.95
2022-08-19T05:03:09.445Z,4.68
2022-08-19T05:05:45.162Z,4.35
2022-08-19T05:08:19.385Z,4.75
2022-08-19T05:10:59.287Z,4.35
2022-08-19T05:13:27.601Z,4.32
2022-08-19T05:15:57.164Z,4.10
2022-08-19T05:18:43.136Z,4.75
2022-08-19T05:21:29.947Z,4.93
2022-08-19T05:23:59.533Z,3.78
2022-08-19T05:26:28.107Z,4.53
2022-08-19T05:28:56.935Z,4.82
2022-08-19T05:31:24.894Z,5.07
2022-08-19T05:33:52.775Z,4.57
2022-08-19T05:36:21.002Z,4.15
2022-08-19T05:38:50.910Z,4.25
2022-08-19T05:41:20.290Z,5.05
2022-08-19T05:43:48.242Z,4.07
2022-08-19T05:46:20.018Z,4.82
2022-08-19T05:48:57.464Z,4.75
2022-08-19T05:51:28.958Z,4.15
2022-08-19T05:53:57.482Z,4.20
2022-08-19T05:56:26.971Z,5.07
2022-08-19T05:58:55.108Z,4.43
2022-08-19T06:01:23.252Z,4.50
2022-08-19T06:03:51.123Z,3.70
2022-08-19T06:06:19.579Z,4.00
2022-08-19T06:08:50.960Z,4.43
2022-08-19T06:11:22.015Z,3.70
2022-08-19T06:16:27.836Z,3.60
2022-08-19T06:18:57.817Z,4.40
2022-08-19T06:21:28.075Z,4.13
2022-08-19T06:23:56.929Z,3.35
2022-08-19T06:26:25.502Z,3.83
2022-08-19T06:28:54.747Z,4.35
2022-08-19T06:31:25.181Z,3.95
2022-08-19T06:33:53.286Z,4.32
2022-08-19T06:36:25.272Z,3.67
2022-08-19T06:38:54.062Z,4.00
2022-08-19T06:41:22.398Z,3.88
2022-08-19T06:43:50.954Z,3.25
2022-08-19T06:46:24.120Z,3.83
2022-08-19T06:48:54.241Z,3.30
2022-08-19T06:51:24.766Z,3.90
2022-08-19T06:53:54.505Z,3.83
2022-08-19T06:56:31.845Z,3.63
2022-08-19T06:59:00.187Z,4.13
2022-08-19T07:01:29.474Z,3.88
2022-08-19T07:03:57.488Z,4.25
2022-08-19T07:06:43.515Z,3.30
2022-08-19T07:09:18.438Z,4.20
2022-08-19T07:11:47.770Z,3.83
2022-08-19T07:14:19.111Z,3.72
2022-08-19T07:16:51.140Z,3.50
2022-08-19T07:19:20.281Z,3.45
2022-08-19T07:21:48.765Z,3.72
2022-08-19T07:24:17.381Z,3.97
2022-08-19T07:26:46.250Z,4.30
2022-08-19T07:29:14.554Z,4.13
2022-08-19T07:31:43.589Z,3.95
2022-08-19T07:34:15.911Z,4.05
2022-08-19T07:36:45.388Z,4.35
2022-08-19T07:39:17.442Z,4.03
2022-08-19T07:41:45.919Z,4.25
2022-08-19T07:44:14.812Z,3.38
2022-08-19T07:46:48.263Z,4.05
2022-08-19T07:49:20.267Z,3.55
2022-08-19T07:51:50.235Z,3.75
2022-08-19T07:54:18.637Z,3.40
2022-08-19T07:56:46.543Z,3.50
2022-08-19T07:59:14.639Z,2.95
2022-08-19T08:01:42.689Z,3.17
2022-08-19T08:04:27.922Z,3.50
2022-08-19T08:07:14.771Z,3.28
2022-08-19T08:09:49.525Z,3.28
2022-08-19T08:12:33.623Z,3.28
2022-08-19T08:15:08.154Z,3.50
2022-08-19T08:17:51.420Z,3.10
2022-08-19T08:20:20.636Z,2.53
2022-08-19T08:23:07.838Z,3.75
2022-08-19T08:25:37.327Z,3.25
2022-08-19T08:28:06.029Z,3.38
2022-08-19T08:30:36.696Z,3.13
2022-08-19T08:33:05.298Z,2.97
2022-08-19T08:35:34.403Z,2.80
2022-08-19T08:38:05.189Z,3.15
2022-08-19T08:40:41.494Z,2.80
2022-08-19T08:43:15.887Z,2.58
2022-08-19T08:45:53.554Z,2.92
2022-08-19T08:48:29.102Z,2.30
2022-08-19T08:50:58.394Z,2.75
2022-08-19T08:53:31.091Z,2.35
2022-08-19T08:56:04.594Z,2.00
2022-08-19T08:58:42.880Z,2.45
2022-08-19T09:01:12.241Z,2.50
2022-08-19T09:03:42.874Z,2.17
2022-08-19T09:06:17.416Z,1.70
2022-08-19T09:08:56.976Z,1.83
2022-08-19T09:11:42.168Z,2.38
2022-08-19T09:14:47.352Z,2.00
2022-08-19T09:17:08.923Z,1.67
2022-08-19T09:19:38.116Z,1.98
2022-08-19T09:22:08.674Z,2.15
2022-08-19T09:24:40.717Z,2.28
2022-08-19T09:27:18.782Z,1.77
2022-08-19T09:29:49.882Z,1.85
2022-08-19T09:32:26.910Z,1.95
2022-08-19T09:34:55.565Z,1.83
2022-08-19T09:37:23.819Z,1.48
2022-08-19T09:39:54.584Z,1.52
2022-08-19T09:42:30.259Z,1.67
2022-08-19T09:45:05.249Z,1.60
2022-08-19T09:47:38.930Z,1.27
2022-08-19T09:50:11.689Z,1.67
2022-08-19T09:52:55.746Z,1.70
2022-08-19T09:55:31.076Z,1.75
2022-08-19T09:58:01.601Z,1.75
2022-08-19T10:00:29.889Z,1.40
2022-08-19T10:02:57.798Z,2.05
2022-08-19T10:05:42.966Z,1.40
2022-08-19T10:08:13.512Z,1.80
2022-08-19T10:10:46.636Z,1.50
2022-08-19T10:13:16.011Z,1.75
2022-08-19T10:15:47.415Z,1.45
2022-08-19T10:18:16.620Z,1.60
2022-08-19T10:20:46.644Z,1.58
2022-08-19T10:23:20.028Z,2.03
2022-08-19T10:25:49.731Z,1.67
2022-08-19T10:28:19.437Z,1.73
2022-08-19T10:30:48.453Z,2.13
2022-08-19T10:33:36.501Z,1.65
2022-08-19T10:36:06.397Z,1.80
2022-08-19T10:38:34.797Z,1.80
2022-08-19T10:41:11.129Z,1.52
2022-08-19T10:43:40.795Z,1.35
2022-08-19T10:46:14.017Z,1.63
2022-08-19T10:48:45.441Z,1.90
2022-08-19T10:51:31.939Z,2.03
2022-08-19T10:54:01.084Z,1.88
2022-08-19T10:56:48.592Z,2.38
2022-08-19T10:59:17.412Z,2.10
2022-08-19T11:01:47.080Z,2.05
2022-08-19T11:04:18.253Z,2.40
2022-08-19T11:06:48.334Z,1.65
2022-08-19T11:09:17.779Z,1.83
2022-08-19T11:11:48.402Z,1.75
2022-08-19T11:14:19.132Z,1.85
2022-08-19T11:16:47.305Z,2.10
2022-08-19T11:19:18.031Z,1.67
2022-08-19T11:21:47.728Z,2.00
2022-08-19T11:24:20.631Z,1.95
2022-08-19T11:26:52.338Z,2.05
2022-08-19T11:29:26.674Z,1.70
2022-08-19T11:31:55.753Z,1.80
2022-08-19T11:34:27.997Z,1.88
2022-08-19T11:36:59.901Z,2.20
2022-08-19T11:39:30.091Z,2.42
2022-08-19T11:42:00.345Z,1.92
2022-08-19T11:44:31.187Z,2.50
2022-08-19T11:49:37.290Z,2.10
2022-08-19T11:52:05.549Z,2.40
2022-08-19T11:54:33.664Z,2.30
2022-08-19T11:57:04.765Z,2.05
2022-08-19T11:59:32.849Z,2.10
2022-08-19T12:02:00.754Z,2.42
2022-08-19T12:04:28.640Z,2.40
2022-08-19T12:06:56.581Z,2.00
2022-08-19T12:09:24.443Z,1.95
2022-08-19T12:11:52.833Z,2.40
2022-08-19T12:14:22.073Z,2.13
2022-08-19T12:16:52.198Z,2.25
2022-08-19T12:19:22.251Z,1.75
2022-08-19T12:21:51.603Z,2.30
2022-08-19T12:24:23.812Z,2.78
2022-08-19T12:26:53.499Z,2.53
2022-08-19T12:29:29.487Z,2.10
2022-08-19T12:32:01.460Z,2.38
2022-08-19T12:34:31.699Z,2.10
2022-08-19T12:37:00.401Z,1.83
2022-08-19T12:39:28.383Z,1.90
2022-08-19T12:41:56.475Z,1.98
2022-08-19T12:44:31.928Z,1.23
2022-08-19T12:47:01.257Z,1.23
2022-08-19T12:49:54.253Z,2.10
2022-08-19T12:52:23.319Z,1.65
2022-08-19T12:54:53.894Z,1.38
2022-08-19T12:57:24.470Z,1.50
2022-08-19T13:00:07.449Z,1.25
2022-08-19T13:02:39.029Z,1.58
2022-08-19T13:05:09.604Z,1.60
2022-08-19T13:07:38.163Z,1.60
2022-08-19T13:10:07.300Z,1.70
2022-08-19T13:12:35.290Z,1.48
2022-08-19T13:15:10.883Z,1.50
2022-08-19T13:17:40.763Z,1.40
2022-08-19T13:20:10.775Z,1.17
2022-08-19T13:22:38.939Z,1.40
2022-08-19T13:25:08.146Z,1.25
2022-08-19T13:27:36.390Z,1.70
2022-08-19T13:30:32.815Z,1.40
2022-08-19T13:33:15.184Z,1.15
2022-08-19T13:35:47.203Z,1.15
2022-08-19T13:38:17.322Z,1.25
2022-08-19T13:40:45.767Z,1.10
2022-08-19T13:43:22.851Z,1.10
2022-08-19T13:45:54.698Z,1.40
2022-08-19T13:48:22.829Z,1.23
2022-08-19T13:50:50.708Z,1.10
2022-08-19T13:53:19.938Z,1.08
2022-08-19T13:55:48.098Z,1.23
2022-08-19T13:58:16.206Z,1.20
2022-08-19T14:00:46.617Z,1.35
2022-08-19T14:03:16.133Z,1.33
2022-08-19T14:05:44.125Z,1.05
2022-08-19T14:08:13.158Z,1.13
2022-08-19T14:10:43.639Z,1.50
2022-08-19T14:13:11.816Z,1.10
2022-08-19T14:15:39.996Z,1.60
2022-08-19T14:18:07.918Z,1.42
2022-08-19T14:20:37.866Z,1.20
2022-08-19T14:23:07.070Z,1.13
2022-08-19T14:25:35.877Z,1.20
2022-08-19T14:28:04.153Z,1.40
2022-08-19T14:30:34.598Z,1.10
2022-08-19T14:33:04.009Z,1.38
2022-08-19T14:35:35.484Z,1.20
2022-08-19T14:38:05.753Z,1.13
2022-08-19T14:40:35.744Z,1.30
2022-08-19T14:43:06.087Z,0.80
2022-08-19T14:45:36.696Z,1.67
2022-08-19T14:48:05.678Z,1.20
2022-08-19T14:50:34.156Z,1.10
2022-08-19T14:53:12.558Z,1.30
2022-08-19T14:55:44.098Z,0.90
2022-08-19T14:58:29.282Z,1.13
2022-08-19T15:01:00.385Z,1.00
2022-08-19T15:03:28.802Z,0.85
2022-08-19T15:05:58.286Z,1.00
2022-08-19T15:08:28.823Z,1.08
2022-08-19T15:10:57.872Z,1.20
2022-08-19T15:13:27.057Z,1.20
2022-08-19T15:15:55.587Z,1.20
2022-08-19T15:18:23.617Z,1.23
2022-08-19T15:20:51.850Z,0.95
2022-08-19T15:23:20.766Z,1.15
2022-08-19T15:25:55.813Z,0.93
2022-08-19T15:28:24.770Z,1.02
2022-08-19T15:30:53.225Z,0.90
2022-08-19T15:33:21.663Z,1.17
2022-08-19T15:35:51.573Z,0.90
2022-08-19T15:38:22.262Z,1.30
2022-08-19T15:43:22.133Z,1.00
2022-08-19T15:45:50.347Z,1.05
2022-08-19T15:48:18.248Z,1.02
2022-08-19T15:50:46.176Z,0.90
2022-08-19T15:53:14.061Z,0.93
2022-08-19T15:55:48.416Z,1.10
2022-08-19T15:58:35.232Z,0.80
2022-08-19T16:01:23.763Z,1.20
2022-08-19T16:04:13.989Z,1.20
2022-08-19T16:06:45.943Z,0.85
2022-08-19T16:09:14.025Z,1.10
2022-08-19T16:11:45.852Z,1.33
2022-08-19T16:14:16.105Z,1.20
2022-08-19T16:16:46.958Z,1.27
2022-08-19T16:19:16.512Z,1.30
2022-08-19T16:21:46.530Z,1.10
2022-08-19T16:24:16.620Z,1.20
2022-08-19T16:26:45.415Z,1.33
2022-08-19T16:29:34.022Z,1.08
2022-08-19T16:32:03.599Z,1.15
2022-08-19T16:34:32.463Z,1.10
2022-08-19T16:37:01.673Z,1.05
2022-08-19T16:39:29.735Z,1.30
2022-08-19T16:41:57.605Z,1.02
2022-08-19T16:44:29.655Z,1.02
2022-08-19T16:46:59.509Z,1.02
2022-08-19T16:49:55.280Z,1.20
2022-08-19T16:52:16.458Z,1.30
2022-08-19T16:54:44.951Z,1.27
2022-08-19T16:57:13.415Z,1.00
2022-08-19T16:59:48.748Z,1.00
2022-08-19T17:02:17.984Z,1.13
2022-08-19T17:04:57.123Z,0.93
2022-08-19T17:07:26.926Z,1.15
2022-08-19T17:09:54.956Z,1.10
2022-08-19T17:12:23.271Z,0.98
2022-08-19T17:15:00.689Z,1.27
2022-08-19T17:17:29.560Z,1.17
2022-08-19T17:19:57.711Z,1.20
2022-08-19T17:22:25.708Z,1.20
2022-08-19T17:24:54.074Z,0.82
2022-08-19T17:27:24.661Z,1.20
2022-08-19T17:29:52.850Z,1.02
2022-08-19T17:32:24.954Z,0.85
2022-08-19T17:34:54.005Z,0.90
2022-08-19T17:37:22.022Z,1.00
2022-08-19T17:39:50.086Z,1.20
2022-08-19T17:42:18.268Z,1.10
2022-08-19T17:44:50.363Z,0.93
2022-08-19T17:47:19.252Z,1.00
2022-08-19T17:49:48.525Z,1.10
2022-08-19T17:52:16.419Z,1.15
2022-08-19T17:54:44.289Z,0.73
2022-08-19T17:57:13.986Z,0.95
2022-08-19T17:59:42.044Z,1.00
2022-08-19T18:02:11.286Z,1.13
2022-08-19T18:04:40.346Z,1.10
2022-08-19T18:07:10.067Z,1.10
2022-08-19T18:09:42.446Z,1.05
2022-08-19T18:12:12.284Z,1.00
2022-08-19T18:14:41.266Z,1.10
2022-08-19T18:17:11.138Z,0.85
2022-08-19T18:19:41.066Z,0.98
2022-08-19T18:22:13.024Z,1.25
2022-08-19T18:24:42.007Z,1.00
2022-08-19T18:27:10.234Z,1.10
2022-08-19T18:29:40.090Z,1.27
2022-08-19T18:32:12.482Z,1.50
2022-08-19T18:34:40.856Z,1.25
2022-08-19T18:37:08.867Z,0.95
2022-08-19T18:39:56.241Z,0.80
2022-08-19T18:42:50.701Z,1.02
2022-08-19T18:45:36.254Z,1.00
2022-08-19T18:48:27.240Z,1.08
2022-08-19T18:50:57.960Z,1.05
2022-08-19T18:53:26.184Z,1.20
2022-08-19T18:55:55.890Z,1.13
2022-08-19T18:58:26.454Z,1.10
2022-08-19T19:00:56.738Z,1.40
2022-08-19T19:03:25.338Z,1.10
2022-08-19T19:05:53.270Z,1.38
2022-08-19T19:08:26.900Z,1.13
2022-08-19T19:10:56.980Z,1.50
2022-08-19T19:13:24.900Z,1.13
2022-08-19T19:15:54.342Z,1.05
2022-08-19T19:18:22.244Z,0.95
2022-08-19T19:20:50.158Z,1.23
2022-08-19T19:23:18.054Z,1.13
2022-08-19T19:25:50.263Z,1.30
2022-08-19T19:28:25.570Z,1.20
2022-08-19T19:30:54.353Z,1.20
2022-08-19T19:33:22.378Z,1.02
2022-08-19T19:35:50.284Z,1.23
2022-08-19T19:38:18.208Z,1.13
2022-08-19T19:40:46.465Z,1.10
2022-08-19T19:43:17.089Z,1.70
2022-08-19T19:45:48.277Z,1.00
2022-08-19T19:48:16.508Z,1.33
2022-08-19T19:50:45.626Z,1.10
2022-08-19T19:53:15.018Z,0.80
2022-08-19T19:55:43.554Z,1.48
2022-08-19T19:58:11.709Z,1.23
2022-08-19T20:00:39.711Z,1.30
2022-08-19T20:03:09.370Z,1.38
2022-08-19T20:05:37.247Z,0.90
2022-08-19T20:08:23.496Z,1.30
2022-08-19T20:10:51.403Z,1.50
2022-08-19T20:13:19.364Z,1.50
2022-08-19T20:15:47.342Z,1.40
2022-08-19T20:18:16.627Z,1.52
2022-08-19T20:20:46.234Z,1.38
2022-08-19T20:23:14.351Z,1.25
2022-08-19T20:25:42.274Z,1.33
2022-08-19T20:28:12.298Z,1.40
2022-08-19T20:30:42.671Z,1.15
2022-08-19T20:33:15.986Z,1.23
2022-08-19T20:35:45.401Z,1.20
2022-08-19T20:38:13.838Z,1.27
2022-08-19T20:40:42.046Z,1.05
2022-08-19T20:43:11.196Z,1.52
2022-08-19T20:45:39.687Z,1.48
2022-08-19T20:48:10.539Z,1.55
2022-08-19T20:50:40.323Z,1.40
2022-08-19T20:53:13.361Z,1.25
2022-08-19T20:55:44.259Z,1.10
2022-08-19T20:58:13.511Z,1.70
2022-08-19T21:00:43.753Z,1.38
2022-08-19T21:03:11.969Z,1.48
2022-08-19T21:05:41.525Z,1.60
2022-08-19T21:08:09.418Z,1.30
2022-08-19T21:10:40.541Z,1.40
2022-08-19T21:13:10.198Z,0.95
2022-08-19T21:15:40.587Z,1.40
2022-08-19T21:18:08.834Z,1.40
2022-08-19T21:20:36.979Z,1.33
2022-08-19T21:23:07.336Z,1.20
2022-08-19T21:25:35.382Z,1.20
2022-08-19T21:28:04.366Z,1.30
2022-08-19T21:30:32.359Z,1.50
2022-08-19T21:33:01.830Z,1.23
2022-08-19T21:35:30.041Z,1.45
2022-08-19T21:37:58.478Z,1.17
2022-08-19T21:40:28.000Z,1.65
2022-08-19T21:42:56.297Z,1.35
2022-08-19T21:45:24.525Z,1.50
2022-08-19T21:47:52.451Z,1.58
2022-08-19T21:50:20.751Z,1.55
2022-08-19T21:52:48.723Z,1.30
2022-08-19T21:55:17.144Z,1.30
2022-08-19T21:57:46.988Z,1.60
2022-08-19T22:00:17.828Z,1.40
2022-08-19T22:02:47.229Z,1.35
2022-08-19T22:05:15.560Z,1.35
2022-08-19T22:07:43.781Z,1.25
2022-08-19T22:10:12.131Z,1.27
2022-08-19T22:12:51.505Z,1.40
2022-08-19T22:15:22.851Z,0.88
2022-08-19T22:17:51.585Z,1.10
2022-08-19T22:20:23.253Z,1.60
2022-08-19T22:22:53.485Z,1.20
2022-08-19T22:25:29.985Z,1.20
2022-08-19T22:28:01.726Z,1.10
2022-08-19T22:30:34.048Z,0.80
2022-08-19T22:33:04.544Z,1.23
2022-08-19T22:35:37.713Z,1.10
2022-08-19T22:38:07.357Z,1.00
2022-08-19T22:40:39.441Z,1.27
2022-08-19T22:43:09.319Z,1.00
2022-08-19T22:45:38.661Z,0.90
2022-08-19T22:48:08.558Z,0.95
2022-08-19T22:50:36.991Z,1.10
2022-08-19T22:53:07.203Z,0.88
2022-08-19T22:55:36.925Z,1.00
2022-08-19T22:58:05.440Z,0.93
2022-08-19T23:00:33.827Z,1.00
2022-08-19T23:03:03.242Z,1.13
2022-08-19T23:05:31.371Z,1.10
2022-08-19T23:07:59.387Z,1.00
2022-08-19T23:10:28.857Z,1.02
2022-08-19T23:12:58.033Z,1.08
2022-08-19T23:15:28.590Z,0.90
2022-08-19T23:18:00.096Z,0.70
2022-08-19T23:20:32.473Z,1.02
2022-08-19T23:23:02.214Z,1.10
2022-08-19T23:25:32.212Z,1.08
2022-08-19T23:28:18.093Z,0.80
2022-08-19T23:30:47.889Z,0.63
2022-08-19T23:33:21.423Z,0.95
2022-08-19T23:35:51.120Z,0.85
2022-08-19T23:38:20.979Z,0.85
2022-08-19T23:40:48.926Z,0.80
2022-08-19T23:43:24.310Z,0.70
2022-08-19T23:45:53.731Z,0.60
2022-08-19T23:48:25.977Z,0.80
2022-08-19T23:53:26.611Z,0.60
2022-08-19T23:55:54.995Z,0.60
2022-08-19T23:58:23.706Z,0.95
